Time;durP1;ratioP1;P1;durP2;ratioP2;P2;SDS_P1;SDS_P2;PMS_P1;PMS_P2;Temp;Humidity;BMP_temperature;BMP_pressure;BME280_temperature;BME280_humidity;BME280_pressure;Samples;Min_cycle;Max_cycle;Signal;HPM_P1;HPM_P2
2022/06/26 00:02:11;;;;;;;5.30;4.07;;;;;;;;;;5003266;28;20062;-76
2022/06/26 00:04:37;;;;;;;7.28;4.65;;;;;;;;;;5000560;28;20073;-76
2022/06/26 00:07:04;;;;;;;7.00;4.60;;;;;;;;;;5005918;28;20056;-76
2022/06/26 00:09:30;;;;;;;8.38;4.57;;;;;;;;;;5003967;28;20428;-77
2022/06/26 00:11:56;;;;;;;5.85;4.47;;;;;;;;;;5003562;28;20047;-77
2022/06/26 00:14:22;;;;;;;6.93;3.97;;;;;;;;;;5002600;28;20042;-76
2022/06/26 00:16:49;;;;;;;4.63;3.53;;;;;;;;;;5001800;28;20292;-76
2022/06/26 00:19:16;;;;;;;7.22;3.78;;;;;;;;;;5002443;28;20084;-76
2022/06/26 00:21:42;;;;;;;6.40;3.65;;;;;;;;;;5000702;28;20425;-76
2022/06/26 00:24:08;;;;;;;4.32;3.58;;;;;;;;;;5000014;28;20077;-76
2022/06/26 00:26:34;;;;;;;6.47;4.28;;;;;;;;;;5000757;28;20398;-76
2022/06/26 00:29:00;;;;;;;7.03;5.07;;;;;;;;;;5004321;28;20038;-76
2022/06/26 00:31:27;;;;;;;7.85;5.25;;;;;;;;;;5003613;28;20589;-77
2022/06/26 00:33:53;;;;;;;7.15;5.50;;;;;;;;;;4999080;28;20073;-76
2022/06/26 00:36:19;;;;;;;8.63;5.88;;;;;;;;;;5003817;28;20442;-76
2022/06/26 00:38:45;;;;;;;7.80;4.65;;;;;;;;;;5001937;28;20057;-76
2022/06/26 00:41:10;;;;;;;7.43;4.80;;;;;;;;;;5005811;28;20080;-77
2022/06/26 00:43:37;;;;;;;8.65;5.05;;;;;;;;;;5002174;28;20494;-76
2022/06/26 00:46:04;;;;;;;6.57;4.80;;;;;;;;;;4999853;28;20572;-76
2022/06/26 00:48:30;;;;;;;6.18;4.57;;;;;;;;;;5005335;28;20049;-76
2022/06/26 00:50:56;;;;;;;7.30;4.55;;;;;;;;;;5010646;28;20052;-76
2022/06/26 00:53:23;;;;;;;9.00;4.70;;;;;;;;;;5013442;28;20066;-75
2022/06/26 00:55:49;;;;;;;6.20;4.90;;;;;;;;;;5012789;28;20533;-76
2022/06/26 00:58:15;;;;;;;5.22;4.30;;;;;;;;;;5013144;28;20038;-76
2022/06/26 01:00:42;;;;;;;6.88;4.43;;;;;;;;;;5006157;28;20060;-76
2022/06/26 01:03:08;;;;;;;4.57;4.07;;;;;;;;;;5003425;28;20049;-76
2022/06/26 01:05:34;;;;;;;7.10;4.18;;;;;;;;;;5012070;28;20096;-76
2022/06/26 01:08:00;;;;;;;7.22;4.45;;;;;;;;;;5004489;28;20050;-75
2022/06/26 01:10:26;;;;;;;5.07;3.90;;;;;;;;;;5000916;28;20085;-76
2022/06/26 01:12:52;;;;;;;4.72;3.80;;;;;;;;;;5009932;28;20057;-77
2022/06/26 01:15:19;;;;;;;6.22;4.07;;;;;;;;;;5008744;28;20049;-76
2022/06/26 01:17:46;;;;;;;4.88;3.97;;;;;;;;;;5011429;28;20054;-76
2022/06/26 01:20:12;;;;;;;4.75;4.00;;;;;;;;;;5010477;28;20053;-75
2022/06/26 01:22:38;;;;;;;5.28;4.10;;;;;;;;;;5012555;28;20057;-75
2022/06/26 01:25:04;;;;;;;8.43;4.20;;;;;;;;;;5007134;28;20052;-75
2022/06/26 01:27:30;;;;;;;7.38;4.28;;;;;;;;;;5010490;28;20045;-75
2022/06/26 01:29:56;;;;;;;6.68;4.53;;;;;;;;;;5005973;28;20095;-75
2022/06/26 01:32:22;;;;;;;7.25;4.45;;;;;;;;;;5001689;28;20093;-76
2022/06/26 01:34:48;;;;;;;4.90;4.20;;;;;;;;;;5003711;28;20042;-75
2022/06/26 01:37:14;;;;;;;5.10;4.47;;;;;;;;;;5004490;28;20184;-75
2022/06/26 01:39:40;;;;;;;4.30;3.90;;;;;;;;;;5003326;28;20085;-76
2022/06/26 01:42:06;;;;;;;3.97;3.55;;;;;;;;;;5008100;28;20042;-75
2022/06/26 01:44:32;;;;;;;4.50;3.75;;;;;;;;;;5007893;28;20037;-76
2022/06/26 01:46:59;;;;;;;4.55;3.35;;;;;;;;;;5002481;28;20057;-75
2022/06/26 01:49:26;;;;;;;5.28;3.30;;;;;;;;;;5004706;28;20045;-75
2022/06/26 01:51:53;;;;;;;6.38;3.50;;;;;;;;;;5010027;28;20053;-75
2022/06/26 01:54:20;;;;;;;5.15;3.30;;;;;;;;;;5010026;28;20516;-75
2022/06/26 01:56:46;;;;;;;3.40;3.10;;;;;;;;;;5009027;28;20052;-75
2022/06/26 01:59:12;;;;;;;4.18;3.33;;;;;;;;;;5009892;28;20046;-74
2022/06/26 02:01:38;;;;;;;4.05;3.28;;;;;;;;;;5007106;28;20053;-74
2022/06/26 02:04:05;;;;;;;3.60;3.03;;;;;;;;;;5010656;28;20133;-75
2022/06/26 02:06:31;;;;;;;5.07;2.90;;;;;;;;;;5009460;28;20489;-75
2022/06/26 02:08:57;;;;;;;3.97;2.92;;;;;;;;;;5001733;28;20494;-75
2022/06/26 02:14:09;;;;;;;2.90;2.38;;;;;;;;;;5008200;28;20497;-74
2022/06/26 02:16:35;;;;;;;4.70;2.53;;;;;;;;;;5006687;28;20069;-75
2022/06/26 02:19:01;;;;;;;4.13;2.53;;;;;;;;;;5008432;28;20054;-74
2022/06/26 02:21:28;;;;;;;3.42;2.50;;;;;;;;;;5006845;28;20042;-75
2022/06/26 02:23:54;;;;;;;2.83;2.53;;;;;;;;;;5009821;28;20082;-75
2022/06/26 02:26:21;;;;;;;3.00;2.10;;;;;;;;;;5005425;28;20042;-75
2022/06/26 02:28:47;;;;;;;3.50;2.50;;;;;;;;;;5004173;28;20084;-75
2022/06/26 02:31:14;;;;;;;2.78;2.58;;;;;;;;;;5006277;28;20042;-75
2022/06/26 02:33:40;;;;;;;3.90;3.15;;;;;;;;;;5006752;28;20089;-75
2022/06/26 02:36:07;;;;;;;4.50;4.10;;;;;;;;;;5021499;28;20046;-75
2022/06/26 02:38:34;;;;;;;5.22;4.30;;;;;;;;;;5007499;28;20045;-75
2022/06/26 02:41:00;;;;;;;4.60;4.20;;;;;;;;;;5004171;28;20108;-75
2022/06/26 02:43:26;;;;;;;5.05;4.65;;;;;;;;;;5011000;28;20045;-76
2022/06/26 02:45:53;;;;;;;6.78;5.05;;;;;;;;;;5007831;28;20042;-75
2022/06/26 02:48:20;;;;;;;4.60;4.15;;;;;;;;;;5002223;28;20046;-75
2022/06/26 02:50:46;;;;;;;6.70;5.00;;;;;;;;;;5002956;28;20100;-75
2022/06/26 02:53:13;;;;;;;6.43;5.10;;;;;;;;;;5009579;28;20049;-75
2022/06/26 02:55:39;;;;;;;5.93;4.82;;;;;;;;;;5010178;28;20050;-75
2022/06/26 02:58:05;;;;;;;6.85;5.88;;;;;;;;;;5009571;28;20107;-76
2022/06/26 03:00:32;;;;;;;7.15;6.15;;;;;;;;;;5009778;28;20147;-75
2022/06/26 03:03:00;;;;;;;8.77;6.50;;;;;;;;;;5007512;28;20042;-76
2022/06/26 03:05:26;;;;;;;8.52;6.25;;;;;;;;;;5006852;28;20140;-77
2022/06/26 03:07:52;;;;;;;7.82;6.97;;;;;;;;;;5006006;28;20046;-76
2022/06/26 03:10:18;;;;;;;8.18;6.90;;;;;;;;;;5008479;28;20060;-76
2022/06/26 03:12:45;;;;;;;7.45;6.55;;;;;;;;;;5025233;28;20067;-75
2022/06/26 03:15:12;;;;;;;8.55;6.53;;;;;;;;;;5005333;28;20038;-76
2022/06/26 03:17:38;;;;;;;8.27;6.57;;;;;;;;;;5001285;28;20061;-76
2022/06/26 03:20:11;;;;;;;8.45;6.88;;;;;;;;;;5009741;28;20532;-76
2022/06/26 03:22:37;;;;;;;8.15;7.28;;;;;;;;;;5005516;28;20133;-76
2022/06/26 03:25:05;;;;;;;8.55;7.13;;;;;;;;;;5015185;28;20061;-76
2022/06/26 03:27:31;;;;;;;9.15;6.82;;;;;;;;;;5012742;28;20046;-77
2022/06/26 03:29:57;;;;;;;8.68;7.20;;;;;;;;;;5008463;28;20367;-76
2022/06/26 03:32:23;;;;;;;8.10;7.25;;;;;;;;;;5005676;28;20044;-76
2022/06/26 03:34:49;;;;;;;8.60;7.65;;;;;;;;;;5009062;28;20038;-77
2022/06/26 03:37:15;;;;;;;9.05;8.20;;;;;;;;;;5006006;28;20064;-77
2022/06/26 03:39:41;;;;;;;11.20;8.43;;;;;;;;;;5007494;28;20045;-77
2022/06/26 03:42:07;;;;;;;9.95;8.27;;;;;;;;;;5000769;28;20092;-77
2022/06/26 03:44:33;;;;;;;9.63;8.63;;;;;;;;;;5002670;28;20054;-77
2022/06/26 03:46:59;;;;;;;10.52;8.82;;;;;;;;;;5004371;28;20449;-76
2022/06/26 03:49:25;;;;;;;10.02;9.02;;;;;;;;;;5007620;28;20138;-76
2022/06/26 03:51:51;;;;;;;9.93;8.90;;;;;;;;;;5004244;28;20472;-76
2022/06/26 03:54:18;;;;;;;10.52;8.70;;;;;;;;;;5005850;28;20173;-76
2022/06/26 03:56:44;;;;;;;9.23;7.72;;;;;;;;;;5005057;28;20552;-75
2022/06/26 03:59:10;;;;;;;10.10;9.10;;;;;;;;;;5002361;28;20050;-76
2022/06/26 04:01:36;;;;;;;11.27;9.60;;;;;;;;;;4999163;28;20081;-77
2022/06/26 04:04:02;;;;;;;11.10;9.63;;;;;;;;;;5004262;28;20042;-77
2022/06/26 04:06:28;;;;;;;11.57;9.65;;;;;;;;;;5006783;28;20050;-76
2022/06/26 04:08:54;;;;;;;10.40;9.13;;;;;;;;;;5003276;28;20056;-75
2022/06/26 04:11:20;;;;;;;9.65;8.65;;;;;;;;;;5004038;28;20052;-76
2022/06/26 04:13:49;;;;;;;12.02;8.90;;;;;;;;;;5006722;28;20042;-76
2022/06/26 04:16:15;;;;;;;9.65;8.55;;;;;;;;;;5002231;28;20057;-76
2022/06/26 04:18:41;;;;;;;9.32;8.35;;;;;;;;;;5006883;28;20607;-77
2022/06/26 04:21:07;;;;;;;8.05;7.35;;;;;;;;;;5006017;28;20557;-77
2022/06/26 04:23:33;;;;;;;8.55;6.50;;;;;;;;;;5001209;28;20062;-77
2022/06/26 04:25:59;;;;;;;8.60;6.25;;;;;;;;;;5003543;28;20097;-77
2022/06/26 04:28:25;;;;;;;7.50;6.72;;;;;;;;;;5006895;28;20054;-77
2022/06/26 04:30:51;;;;;;;7.80;6.22;;;;;;;;;;5007406;28;20127;-77
2022/06/26 04:33:17;;;;;;;7.10;6.13;;;;;;;;;;5005977;28;21631;-76
2022/06/26 04:35:44;;;;;;;5.90;5.30;;;;;;;;;;5005023;28;20077;-76
2022/06/26 04:38:10;;;;;;;5.80;5.30;;;;;;;;;;5003673;28;20073;-77
2022/06/26 04:40:36;;;;;;;5.20;4.70;;;;;;;;;;5004860;28;20045;-76
2022/06/26 04:43:02;;;;;;;5.90;4.70;;;;;;;;;;5002176;28;20050;-77
2022/06/26 04:45:28;;;;;;;5.43;4.70;;;;;;;;;;5005343;28;20493;-77
2022/06/26 04:47:54;;;;;;;5.28;4.78;;;;;;;;;;5010052;28;20045;-76
2022/06/26 04:50:20;;;;;;;8.55;5.43;;;;;;;;;;5005281;28;20046;-75
2022/06/26 04:52:48;;;;;;;6.22;5.63;;;;;;;;;;5007865;28;20054;-76
2022/06/26 04:55:14;;;;;;;6.10;5.50;;;;;;;;;;5006178;28;20038;-76
2022/06/26 04:57:40;;;;;;;5.38;4.82;;;;;;;;;;5008134;28;20042;-76
2022/06/26 05:00:08;;;;;;;6.50;5.32;;;;;;;;;;5009781;28;20494;-76
2022/06/26 05:02:35;;;;;;;7.15;5.10;;;;;;;;;;5001161;28;20058;-76
2022/06/26 05:05:01;;;;;;;10.13;5.40;;;;;;;;;;5005713;28;20073;-76
2022/06/26 05:07:27;;;;;;;5.63;4.82;;;;;;;;;;5004855;28;20057;-76
2022/06/26 05:09:53;;;;;;;7.90;5.40;;;;;;;;;;5009037;28;20046;-76
2022/06/26 05:12:19;;;;;;;6.55;4.90;;;;;;;;;;5002309;28;20068;-76
2022/06/26 05:14:45;;;;;;;6.10;4.68;;;;;;;;;;5004549;28;20045;-76
2022/06/26 05:17:11;;;;;;;7.10;5.22;;;;;;;;;;5008022;28;20401;-76
2022/06/26 05:19:37;;;;;;;8.07;5.45;;;;;;;;;;5006557;28;20522;-76
2022/06/26 05:22:03;;;;;;;7.15;5.75;;;;;;;;;;5007932;28;20046;-76
2022/06/26 05:24:30;;;;;;;7.07;5.75;;;;;;;;;;5004085;28;20187;-76
2022/06/26 05:26:57;;;;;;;7.45;6.25;;;;;;;;;;5005917;28;20050;-76
2022/06/26 05:29:23;;;;;;;8.88;6.28;;;;;;;;;;5002652;28;20042;-77
2022/06/26 05:31:50;;;;;;;7.40;5.28;;;;;;;;;;5003170;28;20386;-76
2022/06/26 05:34:16;;;;;;;6.93;5.43;;;;;;;;;;5005918;28;20056;-76
2022/06/26 05:36:42;;;;;;;5.97;5.18;;;;;;;;;;5007134;28;20037;-76
2022/06/26 05:39:08;;;;;;;5.93;5.32;;;;;;;;;;5007562;28;20059;-76
2022/06/26 05:41:34;;;;;;;5.75;4.88;;;;;;;;;;5010671;28;20393;-77
2022/06/26 05:44:00;;;;;;;5.70;5.10;;;;;;;;;;5002381;28;20045;-75
2022/06/26 05:46:26;;;;;;;10.20;5.30;;;;;;;;;;5006961;28;20053;-75
2022/06/26 05:48:52;;;;;;;6.00;5.40;;;;;;;;;;5004313;28;20096;-75
2022/06/26 05:51:18;;;;;;;5.15;4.65;;;;;;;;;;5010819;28;20042;-75
2022/06/26 05:53:44;;;;;;;5.22;4.72;;;;;;;;;;5011740;28;20049;-76
2022/06/26 05:56:10;;;;;;;4.97;4.47;;;;;;;;;;5007484;28;20049;-75
2022/06/26 05:58:36;;;;;;;6.47;4.63;;;;;;;;;;5008281;28;20049;-75
2022/06/26 06:01:02;;;;;;;4.55;4.03;;;;;;;;;;5003043;28;20038;-75
2022/06/26 06:03:28;;;;;;;4.22;3.83;;;;;;;;;;5003078;28;20087;-76
2022/06/26 06:05:54;;;;;;;5.22;3.75;;;;;;;;;;5010573;28;20037;-76
2022/06/26 06:08:20;;;;;;;4.78;3.33;;;;;;;;;;5008318;28;20056;-76
2022/06/26 06:10:46;;;;;;;4.57;4.13;;;;;;;;;;5008830;28;20045;-75
2022/06/26 06:13:13;;;;;;;3.78;3.30;;;;;;;;;;5007722;28;20041;-76
2022/06/26 06:15:39;;;;;;;3.70;3.40;;;;;;;;;;5009261;28;20104;-75
2022/06/26 06:18:06;;;;;;;5.18;3.88;;;;;;;;;;5010090;28;20045;-76
2022/06/26 06:20:32;;;;;;;4.57;3.38;;;;;;;;;;5009954;28;20049;-76
2022/06/26 06:23:02;;;;;;;5.78;3.85;;;;;;;;;;4999970;28;20056;-76
2022/06/26 06:25:28;;;;;;;5.70;3.72;;;;;;;;;;5008584;28;20129;-76
2022/06/26 06:27:55;;;;;;;4.68;4.22;;;;;;;;;;5003326;28;20034;-76
2022/06/26 06:30:21;;;;;;;6.38;4.22;;;;;;;;;;5006036;28;20053;-76
2022/06/26 06:32:48;;;;;;;5.30;4.28;;;;;;;;;;5005677;28;20048;-75
2022/06/26 06:35:14;;;;;;;5.38;4.10;;;;;;;;;;5007404;28;20077;-75
2022/06/26 06:37:41;;;;;;;7.53;4.65;;;;;;;;;;5006521;28;20088;-76
2022/06/26 06:40:07;;;;;;;5.05;4.30;;;;;;;;;;5008776;28;20778;-76
2022/06/26 06:42:33;;;;;;;4.45;4.00;;;;;;;;;;5005539;28;20149;-76
2022/06/26 06:44:59;;;;;;;6.28;4.00;;;;;;;;;;5000846;28;20081;-76
2022/06/26 06:47:25;;;;;;;4.68;3.80;;;;;;;;;;5007048;28;20111;-75
2022/06/26 06:49:51;;;;;;;3.60;3.10;;;;;;;;;;5001887;28;20045;-75
2022/06/26 06:52:17;;;;;;;3.80;3.42;;;;;;;;;;5006784;28;20041;-75
2022/06/26 06:54:43;;;;;;;4.30;3.25;;;;;;;;;;5010219;28;20623;-75
2022/06/26 06:57:09;;;;;;;4.55;3.80;;;;;;;;;;5008230;28;20046;-75
2022/06/26 06:59:35;;;;;;;4.63;3.17;;;;;;;;;;5006367;28;20045;-76
2022/06/26 07:02:02;;;;;;;5.22;3.95;;;;;;;;;;5003734;28;20044;-76
2022/06/26 07:04:28;;;;;;;5.80;3.80;;;;;;;;;;5000930;28;20074;-76
2022/06/26 07:06:57;;;;;;;4.25;3.53;;;;;;;;;;5002386;28;20160;-75
2022/06/26 07:09:23;;;;;;;4.55;3.90;;;;;;;;;;5001926;28;20049;-75
2022/06/26 07:11:49;;;;;;;4.35;3.60;;;;;;;;;;5000083;28;20048;-75
2022/06/26 07:14:15;;;;;;;3.60;3.30;;;;;;;;;;5004882;28;20049;-76
2022/06/26 07:16:42;;;;;;;5.20;3.40;;;;;;;;;;5004555;28;20129;-76
2022/06/26 07:19:08;;;;;;;3.45;3.15;;;;;;;;;;5001161;28;20137;-76
2022/06/26 07:21:34;;;;;;;4.03;3.25;;;;;;;;;;5009305;28;20100;-76
2022/06/26 07:24:00;;;;;;;4.97;3.50;;;;;;;;;;5008409;28;20064;-75
2022/06/26 07:26:26;;;;;;;6.50;3.88;;;;;;;;;;5007458;28;20081;-76
2022/06/26 07:28:52;;;;;;;4.40;3.40;;;;;;;;;;5002195;28;20492;-75
2022/06/26 07:31:18;;;;;;;4.22;3.25;;;;;;;;;;5000752;28;20038;-75
2022/06/26 07:36:32;;;;;;;3.30;2.92;;;;;;;;;;5005588;28;20042;-76
2022/06/26 07:38:58;;;;;;;4.25;3.28;;;;;;;;;;5003346;28;20041;-76
2022/06/26 07:41:24;;;;;;;4.32;3.40;;;;;;;;;;5004178;28;20414;-76
2022/06/26 07:43:50;;;;;;;3.60;3.08;;;;;;;;;;5007093;28;20038;-76
2022/06/26 07:46:16;;;;;;;5.25;3.25;;;;;;;;;;5004850;28;20061;-76
2022/06/26 07:48:42;;;;;;;3.25;2.95;;;;;;;;;;5008557;28;20050;-75
2022/06/26 07:51:08;;;;;;;4.05;3.10;;;;;;;;;;5004444;28;20430;-76
2022/06/26 07:53:36;;;;;;;4.10;2.92;;;;;;;;;;5003506;28;20099;-75
2022/06/26 07:56:03;;;;;;;5.50;3.10;;;;;;;;;;5007228;28;20081;-76
2022/06/26 07:58:30;;;;;;;5.00;3.20;;;;;;;;;;5006935;28;20071;-76
2022/06/26 08:00:56;;;;;;;4.43;3.00;;;;;;;;;;5002761;28;21584;-75
2022/06/26 08:03:22;;;;;;;2.90;2.50;;;;;;;;;;4999790;28;20053;-76
2022/06/26 08:05:48;;;;;;;5.07;2.80;;;;;;;;;;4999915;28;20045;-76
2022/06/26 08:08:14;;;;;;;5.20;2.80;;;;;;;;;;5003698;28;20046;-75
2022/06/26 08:10:41;;;;;;;4.78;2.65;;;;;;;;;;5004915;28;20045;-76
2022/06/26 08:13:07;;;;;;;4.07;2.65;;;;;;;;;;5009154;28;20053;-76
2022/06/26 08:15:33;;;;;;;3.60;2.90;;;;;;;;;;5001051;28;20061;-76
2022/06/26 08:17:59;;;;;;;6.65;2.70;;;;;;;;;;5003762;28;20092;-76
2022/06/26 08:20:25;;;;;;;9.15;6.45;;;;;;;;;;5003628;28;20141;-75
2022/06/26 08:22:51;;;;;;;11.88;8.52;;;;;;;;;;5004302;28;20172;-74
2022/06/26 08:25:17;;;;;;;4.88;3.28;;;;;;;;;;5002776;28;20089;-75
2022/06/26 08:27:43;;;;;;;3.67;3.10;;;;;;;;;;5004566;28;20041;-75
2022/06/26 08:30:10;;;;;;;3.28;2.92;;;;;;;;;;5003972;28;20076;-75
2022/06/26 08:32:37;;;;;;;5.65;3.20;;;;;;;;;;5002091;28;20053;-74
2022/06/26 08:35:08;;;;;;;3.28;2.97;;;;;;;;;;5002630;28;20053;-75
2022/06/26 08:37:34;;;;;;;5.95;3.33;;;;;;;;;;5009126;28;21113;-78
2022/06/26 08:40:00;;;;;;;3.92;3.38;;;;;;;;;;5007155;28;20050;-76
2022/06/26 08:42:27;;;;;;;5.30;3.30;;;;;;;;;;5002446;28;20130;-75
2022/06/26 08:44:56;;;;;;;4.68;3.20;;;;;;;;;;5001472;28;20037;-76
2022/06/26 08:47:24;;;;;;;7.15;3.63;;;;;;;;;;5002461;28;20099;-76
2022/06/26 08:49:51;;;;;;;6.70;3.60;;;;;;;;;;5002881;28;20050;-77
2022/06/26 08:52:18;;;;;;;5.50;3.17;;;;;;;;;;5002867;28;20385;-76
2022/06/26 08:54:44;;;;;;;6.07;3.30;;;;;;;;;;5003399;28;20050;-75
2022/06/26 08:57:13;;;;;;;5.28;2.88;;;;;;;;;;5004977;28;20042;-77
2022/06/26 08:59:39;;;;;;;4.53;3.10;;;;;;;;;;5007786;28;20048;-79
2022/06/26 09:02:05;;;;;;;3.78;2.75;;;;;;;;;;5006727;28;20052;-84
2022/06/26 09:04:31;;;;;;;4.47;2.90;;;;;;;;;;5005315;28;20061;-85
2022/06/26 09:06:57;;;;;;;3.83;2.67;;;;;;;;;;5004472;28;20046;-84
2022/06/26 09:09:23;;;;;;;4.53;2.80;;;;;;;;;;5005411;28;20054;-80
2022/06/26 09:11:50;;;;;;;2.75;2.40;;;;;;;;;;5005214;28;20095;-80
2022/06/26 09:14:16;;;;;;;4.55;2.40;;;;;;;;;;5009052;28;20049;-79
2022/06/26 09:16:46;;;;;;;3.72;2.30;;;;;;;;;;5010244;28;20049;-85
2022/06/26 09:19:13;;;;;;;3.03;2.45;;;;;;;;;;5004809;28;20088;-81
2022/06/26 09:21:40;;;;;;;3.10;2.50;;;;;;;;;;5008408;28;20558;-79
2022/06/26 09:24:10;;;;;;;3.97;2.35;;;;;;;;;;5005848;28;20072;-81
2022/06/26 09:26:36;;;;;;;3.35;2.03;;;;;;;;;;5010795;28;20049;-81
2022/06/26 09:29:12;;;;;;;3.67;2.10;;;;;;;;;;5007640;28;20406;-88
2022/06/26 09:31:39;;;;;;;2.72;2.15;;;;;;;;;;5002793;28;20054;-85
2022/06/26 09:34:19;;;;;;;3.47;2.40;;;;;;;;;;5003593;28;20049;-76
2022/06/26 09:36:57;;;;;;;4.10;2.50;;;;;;;;;;5004739;28;20410;-79
2022/06/26 09:39:23;;;;;;;4.72;2.42;;;;;;;;;;5000232;28;20765;-81
2022/06/26 09:41:49;;;;;;;4.78;2.10;;;;;;;;;;5004242;28;20033;-84
2022/06/26 09:44:21;;;;;;;2.83;2.20;;;;;;;;;;5001797;28;20497;-78
2022/06/26 09:46:47;;;;;;;2.28;2.00;;;;;;;;;;5002946;28;20038;-76
2022/06/26 09:49:14;;;;;;;3.38;2.17;;;;;;;;;;4993844;28;20046;-76
2022/06/26 09:51:40;;;;;;;3.83;2.28;;;;;;;;;;5001805;28;20041;-77
2022/06/26 09:54:07;;;;;;;3.70;2.42;;;;;;;;;;5008766;28;20105;-76
2022/06/26 09:56:33;;;;;;;4.78;2.22;;;;;;;;;;4998725;28;20052;-76
2022/06/26 09:58:59;;;;;;;3.33;2.40;;;;;;;;;;5011609;28;20464;-76
2022/06/26 10:07:04;;;;;;;3.38;2.30;;;;;;;;;;5006468;28;20482;-77
2022/06/26 10:09:30;;;;;;;3.53;2.25;;;;;;;;;;5006693;28;20056;-78
2022/06/26 10:12:00;;;;;;;4.18;2.50;;;;;;;;;;5002334;28;20045;-77
2022/06/26 10:14:29;;;;;;;2.78;2.40;;;;;;;;;;5003240;28;20083;-78
2022/06/26 10:16:55;;;;;;;4.13;2.72;;;;;;;;;;5006723;28;20049;-77
2022/06/26 10:19:40;;;;;;;4.95;2.58;;;;;;;;;;5002320;28;20168;-78
2022/06/26 10:22:07;;;;;;;3.90;2.38;;;;;;;;;;5006207;28;20490;-78
2022/06/26 10:24:33;;;;;;;4.35;2.47;;;;;;;;;;5009055;28;20061;-78
2022/06/26 10:27:01;;;;;;;4.05;2.90;;;;;;;;;;5007455;28;20060;-77
2022/06/26 10:29:33;;;;;;;7.93;4.63;;;;;;;;;;5007756;28;20045;-78
2022/06/26 10:31:59;;;;;;;6.63;4.70;;;;;;;;;;5008187;28;20042;-78
2022/06/26 10:34:26;;;;;;;4.43;2.80;;;;;;;;;;5006912;28;20577;-77
2022/06/26 10:37:03;;;;;;;5.75;2.80;;;;;;;;;;4998026;28;20046;-77
2022/06/26 10:39:49;;;;;;;3.05;2.40;;;;;;;;;;5010232;28;20429;-77
2022/06/26 10:45:06;;;;;;;2.92;2.22;;;;;;;;;;5006003;28;20045;-77
2022/06/26 10:47:42;;;;;;;4.30;2.80;;;;;;;;;;5003269;28;20053;-77
2022/06/26 10:50:22;;;;;;;2.55;2.35;;;;;;;;;;5000737;28;20382;-77
2022/06/26 10:52:48;;;;;;;4.88;2.30;;;;;;;;;;5000883;28;20042;-77
2022/06/26 10:55:14;;;;;;;3.22;2.30;;;;;;;;;;5002908;28;20049;-77
2022/06/26 10:57:40;;;;;;;3.78;2.35;;;;;;;;;;5007818;28;20077;-78
2022/06/26 11:00:07;;;;;;;2.55;2.25;;;;;;;;;;5005274;28;20081;-77
2022/06/26 11:02:37;;;;;;;3.83;2.53;;;;;;;;;;5004523;28;20046;-77
2022/06/26 11:05:04;;;;;;;3.78;2.33;;;;;;;;;;5006514;28;20041;-84
2022/06/26 11:07:40;;;;;;;4.60;2.40;;;;;;;;;;5007404;28;20046;-74
2022/06/26 11:10:08;;;;;;;3.58;2.17;;;;;;;;;;5002400;28;20038;-81
2022/06/26 11:12:45;;;;;;;3.45;2.55;;;;;;;;;;4998928;28;20042;-78
2022/06/26 11:15:20;;;;;;;3.28;2.45;;;;;;;;;;5010288;28;20041;-77
2022/06/26 11:17:53;;;;;;;4.57;2.60;;;;;;;;;;5018412;28;20057;-79
2022/06/26 11:20:54;;;;;;;4.32;2.40;;;;;;;;;;5011506;28;20049;-80
2022/06/26 11:23:16;;;;;;;6.72;2.53;;;;;;;;;;5007205;28;20072;-77
2022/06/26 11:25:43;;;;;;;4.03;2.25;;;;;;;;;;5009699;28;20088;-78
2022/06/26 11:28:10;;;;;;;4.15;2.28;;;;;;;;;;5011818;28;20076;-76
2022/06/26 11:30:37;;;;;;;4.05;2.50;;;;;;;;;;5003144;28;20046;-76
2022/06/26 11:33:04;;;;;;;2.75;2.28;;;;;;;;;;5010411;28;20096;-78
2022/06/26 11:35:30;;;;;;;6.10;2.20;;;;;;;;;;5006498;28;20469;-76
2022/06/26 11:37:56;;;;;;;4.65;2.30;;;;;;;;;;5009511;28;20080;-82
2022/06/26 11:40:22;;;;;;;5.30;2.33;;;;;;;;;;5010714;28;20069;-78
2022/06/26 11:42:55;;;;;;;4.38;2.63;;;;;;;;;;5008781;28;20054;-76
2022/06/26 11:45:22;;;;;;;3.28;2.17;;;;;;;;;;5007427;28;20050;-77
2022/06/26 11:47:48;;;;;;;2.80;2.10;;;;;;;;;;5006353;28;20061;-77
2022/06/26 11:50:20;;;;;;;3.78;2.42;;;;;;;;;;5001671;28;20096;-76
2022/06/26 11:52:51;;;;;;;4.93;2.30;;;;;;;;;;5005912;28;20108;-78
2022/06/26 11:55:20;;;;;;;5.10;2.30;;;;;;;;;;5009424;28;20042;-78
2022/06/26 11:57:46;;;;;;;4.10;2.30;;;;;;;;;;5002404;28;20151;-79
2022/06/26 12:00:13;;;;;;;5.55;2.30;;;;;;;;;;5001151;28;20045;-79
2022/06/26 12:02:43;;;;;;;3.42;2.33;;;;;;;;;;5005290;28;20054;-79
2022/06/26 12:05:09;;;;;;;3.15;2.35;;;;;;;;;;5001122;28;20540;-77
2022/06/26 12:07:42;;;;;;;4.60;2.00;;;;;;;;;;5005433;28;20037;-77
2022/06/26 12:10:09;;;;;;;4.53;2.42;;;;;;;;;;5002061;28;20431;-78
2022/06/26 12:12:35;;;;;;;3.40;2.30;;;;;;;;;;5002485;28;20045;-79
2022/06/26 12:15:01;;;;;;;3.25;2.88;;;;;;;;;;4999817;28;20042;-79
2022/06/26 12:17:28;;;;;;;4.53;2.15;;;;;;;;;;5000117;28;20049;-78
2022/06/26 12:20:04;;;;;;;4.70;2.42;;;;;;;;;;5022734;28;20411;-78
2022/06/26 12:22:31;;;;;;;4.03;2.38;;;;;;;;;;5002382;28;20057;-78
2022/06/26 12:24:58;;;;;;;4.40;2.13;;;;;;;;;;5005386;28;20103;-78
2022/06/26 12:27:43;;;;;;;4.55;2.58;;;;;;;;;;5002635;28;20046;-78
2022/06/26 12:30:19;;;;;;;3.55;2.15;;;;;;;;;;5004032;28;20477;-79
2022/06/26 12:32:46;;;;;;;4.38;2.20;;;;;;;;;;5000493;28;20042;-78
2022/06/26 12:35:12;;;;;;;5.10;2.13;;;;;;;;;;5002561;28;20052;-78
2022/06/26 12:37:38;;;;;;;5.15;2.17;;;;;;;;;;5004173;28;20038;-78
2022/06/26 12:40:05;;;;;;;3.78;2.22;;;;;;;;;;5004998;28;20038;-78
2022/06/26 12:42:31;;;;;;;2.45;2.13;;;;;;;;;;5001422;28;20206;-78
2022/06/26 12:45:03;;;;;;;3.15;2.08;;;;;;;;;;5001700;28;20770;-79
2022/06/26 12:47:29;;;;;;;2.72;2.38;;;;;;;;;;5003507;28;20107;-78
2022/06/26 12:49:55;;;;;;;4.03;2.60;;;;;;;;;;5001851;28;20045;-79
2022/06/26 12:52:21;;;;;;;4.65;2.35;;;;;;;;;;5000739;28;20489;-77
2022/06/26 12:54:48;;;;;;;3.05;2.30;;;;;;;;;;4997956;28;20386;-77
2022/06/26 12:57:14;;;;;;;3.60;2.25;;;;;;;;;;5001716;28;20052;-78
2022/06/26 12:59:40;;;;;;;3.88;2.30;;;;;;;;;;5000928;28;20046;-78
2022/06/26 13:02:06;;;;;;;4.38;2.10;;;;;;;;;;5002165;28;20136;-82
2022/06/26 13:04:32;;;;;;;3.95;2.42;;;;;;;;;;5006137;28;20394;-80
2022/06/26 13:06:58;;;;;;;3.28;2.22;;;;;;;;;;5004704;28;20042;-80
2022/06/26 13:09:24;;;;;;;4.10;2.35;;;;;;;;;;5004663;28;20050;-85
2022/06/26 13:11:50;;;;;;;4.85;2.38;;;;;;;;;;5006994;28;20053;-83
2022/06/26 13:14:16;;;;;;;5.18;2.28;;;;;;;;;;5007698;28;20099;-87
2022/06/26 13:16:44;;;;;;;4.38;2.60;;;;;;;;;;5004966;28;20540;-80
2022/06/26 13:19:10;;;;;;;3.13;2.40;;;;;;;;;;5007394;28;20517;-81
2022/06/26 13:21:36;;;;;;;4.60;2.40;;;;;;;;;;5009365;28;20516;-82
2022/06/26 13:24:03;;;;;;;3.83;2.60;;;;;;;;;;5005039;28;20054;-80
2022/06/26 13:26:29;;;;;;;3.65;2.50;;;;;;;;;;5001067;28;20095;-78
2022/06/26 13:28:55;;;;;;;3.92;2.80;;;;;;;;;;5007168;28;20058;-87
2022/06/26 13:31:22;;;;;;;4.28;2.72;;;;;;;;;;5005477;28;20413;-79
2022/06/26 13:33:48;;;;;;;5.18;2.90;;;;;;;;;;4997765;28;20057;-81
2022/06/26 13:36:14;;;;;;;3.10;2.28;;;;;;;;;;5003411;28;20042;-79
2022/06/26 13:38:40;;;;;;;3.80;2.72;;;;;;;;;;5005834;28;20080;-80
2022/06/26 13:41:06;;;;;;;4.10;2.80;;;;;;;;;;5007050;28;20084;-83
2022/06/26 13:43:32;;;;;;;4.60;2.70;;;;;;;;;;5008950;28;20208;-81
2022/06/26 13:45:58;;;;;;;4.40;2.90;;;;;;;;;;5007103;28;20160;-84
2022/06/26 13:48:24;;;;;;;4.15;3.20;;;;;;;;;;5005244;28;20136;-81
2022/06/26 13:50:50;;;;;;;3.03;2.83;;;;;;;;;;5006068;28;20053;-84
2022/06/26 13:53:16;;;;;;;4.63;2.92;;;;;;;;;;5006968;28;20068;-82
2022/06/26 13:55:42;;;;;;;5.13;3.55;;;;;;;;;;5006195;28;20077;-79
2022/06/26 13:58:08;;;;;;;3.38;2.90;;;;;;;;;;5007238;28;20504;-84
2022/06/26 14:00:34;;;;;;;4.25;2.97;;;;;;;;;;5012790;28;20046;-87
2022/06/26 14:03:00;;;;;;;3.47;2.63;;;;;;;;;;5008160;28;20054;-78
2022/06/26 14:05:26;;;;;;;2.58;2.35;;;;;;;;;;5009765;28;20053;-83
2022/06/26 14:07:52;;;;;;;2.78;2.20;;;;;;;;;;5012339;28;20052;-85
2022/06/26 14:10:18;;;;;;;3.22;2.40;;;;;;;;;;5012880;28;20469;-80
2022/06/26 14:12:44;;;;;;;5.03;2.75;;;;;;;;;;5010804;28;20042;-80
2022/06/26 14:15:10;;;;;;;6.00;2.45;;;;;;;;;;5010649;28;20050;-84
2022/06/26 14:17:40;;;;;;;3.72;3.00;;;;;;;;;;5010456;28;20049;-82
2022/06/26 14:20:07;;;;;;;3.97;3.05;;;;;;;;;;5011026;28;20129;-83
2022/06/26 14:28:03;;;;;;;3.92;2.20;;;;;;;;;;5006790;28;20439;-81
2022/06/26 14:30:29;;;;;;;3.13;2.05;;;;;;;;;;5007106;28;20042;-82
2022/06/26 14:32:55;;;;;;;2.33;1.90;;;;;;;;;;5010120;28;20041;-84
2022/06/26 14:35:21;;;;;;;2.38;1.77;;;;;;;;;;5010769;28;20041;-82
2022/06/26 14:37:47;;;;;;;2.33;1.83;;;;;;;;;;5013787;28;20458;-72
2022/06/26 14:40:13;;;;;;;2.78;1.80;;;;;;;;;;5001754;28;20140;-76
2022/06/26 14:42:43;;;;;;;1.70;1.58;;;;;;;;;;5005925;28;20417;-74
2022/06/26 14:45:10;;;;;;;2.83;1.90;;;;;;;;;;5006337;28;20038;-76
2022/06/26 14:47:36;;;;;;;2.17;1.63;;;;;;;;;;5008403;28;20065;-78
2022/06/26 14:50:03;;;;;;;2.83;1.70;;;;;;;;;;5009217;28;20414;-79
2022/06/26 14:52:29;;;;;;;1.60;1.50;;;;;;;;;;5010756;28;20080;-79
2022/06/26 14:54:55;;;;;;;1.50;1.40;;;;;;;;;;5010057;28;20149;-82
2022/06/26 14:57:21;;;;;;;2.83;1.63;;;;;;;;;;5004061;28;20168;-81
2022/06/26 14:59:47;;;;;;;1.95;1.55;;;;;;;;;;5008771;28;20139;-82
2022/06/26 15:02:13;;;;;;;2.63;1.70;;;;;;;;;;5006427;28;20367;-89